Time;durP1;ratioP1;P1;durP2;ratioP2;P2;SDS_P1;SDS_P2;PMS_P1;PMS_P2;Temp;Humidity;BMP_temperature;BMP_pressure;BME280_temperature;BME280_humidity;BME280_pressure;Samples;Min_cycle;Max_cycle;Signal;HPM_P1;HPM_P2
2022/07/05 00:02:06;;;;;;;;;;;17.40;99.90;;;;;;5073957;28;19905;-68
2022/07/05 00:04:31;;;;;;;;;;;17.40;99.90;;;;;;5073722;28;20006;-67
2022/07/05 00:09:41;;;;;;;;;;;17.50;99.90;;;;;;5074236;28;19911;-68
2022/07/05 00:12:07;;;;;;;;;;;17.40;99.90;;;;;;5073526;28;19904;-68
2022/07/05 00:14:32;;;;;;;;;;;17.40;99.90;;;;;;5073389;28;20015;-67
2022/07/05 00:16:58;;;;;;;;;;;17.40;99.90;;;;;;5073494;28;19912;-68
2022/07/05 00:19:23;;;;;;;;;;;17.40;99.90;;;;;;5073767;28;19912;-68
2022/07/05 00:21:49;;;;;;;;;;;17.40;99.90;;;;;;5073457;28;19911;-68
2022/07/05 00:24:14;;;;;;;;;;;17.40;99.90;;;;;;5073380;28;19904;-67
2022/07/05 00:26:40;;;;;;;;;;;17.50;99.90;;;;;;5073432;28;19927;-68
2022/07/05 00:29:05;;;;;;;;;;;17.50;99.90;;;;;;5073430;28;19927;-68
2022/07/05 00:31:31;;;;;;;;;;;17.50;99.90;;;;;;5073659;28;19905;-68
2022/07/05 00:33:56;;;;;;;;;;;17.50;99.90;;;;;;5073517;28;19919;-68
2022/07/05 00:36:22;;;;;;;;;;;17.50;99.90;;;;;;5074867;28;19905;-68
2022/07/05 00:38:48;;;;;;;;;;;17.50;99.90;;;;;;5077450;28;19910;-68
2022/07/05 00:41:13;;;;;;;;;;;17.40;99.90;;;;;;5075871;28;19908;-68
2022/07/05 00:43:51;;;;;;;;;;;17.40;99.90;;;;;;5076968;28;19905;-67
2022/07/05 00:46:17;;;;;;;;;;;17.40;99.90;;;;;;5077322;28;19904;-68
2022/07/05 00:48:42;;;;;;;;;;;17.40;99.90;;;;;;5077507;28;20007;-67
2022/07/05 00:51:09;;;;;;;;;;;17.40;99.90;;;;;;5077157;28;19996;-68
2022/07/05 00:53:34;;;;;;;;;;;17.40;99.90;;;;;;5076694;28;19936;-67
2022/07/05 00:56:00;;;;;;;;;;;17.30;99.90;;;;;;5077117;28;19962;-68
2022/07/05 00:58:26;;;;;;;;;;;17.30;99.90;;;;;;5076745;28;20387;-68
2022/07/05 01:00:52;;;;;;;;;;;17.30;99.90;;;;;;5076715;28;20292;-67
2022/07/05 01:03:17;;;;;;;;;;;17.20;99.90;;;;;;5075619;28;19999;-66
2022/07/05 01:05:43;;;;;;;;;;;17.30;99.90;;;;;;5076623;28;20270;-67
2022/07/05 01:08:10;;;;;;;;;;;17.30;99.90;;;;;;5069583;28;19962;-67
2022/07/05 01:10:36;;;;;;;;;;;17.20;99.90;;;;;;5069394;28;19904;-67
2022/07/05 01:13:01;;;;;;;;;;;17.20;99.90;;;;;;5074994;28;19954;-67
2022/07/05 01:15:27;;;;;;;;;;;17.10;99.90;;;;;;5076024;28;19905;-67
2022/07/05 01:17:53;;;;;;;;;;;17.10;99.90;;;;;;5075840;28;19908;-67
2022/07/05 01:20:18;;;;;;;;;;;17.00;99.90;;;;;;5076030;28;19991;-67
2022/07/05 01:22:57;;;;;;;;;;;16.90;99.90;;;;;;5076983;28;19905;-68
2022/07/05 01:25:23;;;;;;;;;;;16.80;99.90;;;;;;5076541;28;19952;-68
2022/07/05 01:27:49;;;;;;;;;;;16.80;99.90;;;;;;5076839;28;19951;-68
2022/07/05 01:30:15;;;;;;;;;;;16.70;99.90;;;;;;5076410;28;20392;-67
2022/07/05 01:32:40;;;;;;;;;;;16.70;99.90;;;;;;5075795;28;19909;-67
2022/07/05 01:35:07;;;;;;;;;;;16.70;99.90;;;;;;5074724;28;20363;-67
2022/07/05 01:37:33;;;;;;;;;;;16.60;99.90;;;;;;5074600;28;19914;-67
2022/07/05 01:39:58;;;;;;;;;;;16.60;99.90;;;;;;5074650;28;20017;-67
2022/07/05 01:42:24;;;;;;;;;;;16.60;99.90;;;;;;5075174;28;19995;-67
2022/07/05 01:44:49;;;;;;;;;;;16.50;99.90;;;;;;5073554;28;19905;-68
2022/07/05 01:47:16;;;;;;;;;;;16.50;99.90;;;;;;5075062;28;20325;-68
2022/07/05 01:49:43;;;;;;;;;;;16.50;99.90;;;;;;5074817;28;19988;-67
2022/07/05 01:52:10;;;;;;;;;;;16.50;99.90;;;;;;5074765;28;19904;-68
2022/07/05 01:54:36;;;;;;;;;;;16.40;99.90;;;;;;5073360;28;19908;-68
2022/07/05 01:57:03;;;;;;;;;;;16.50;99.90;;;;;;5075005;28;19911;-68
2022/07/05 01:59:29;;;;;;;;;;;16.50;99.90;;;;;;5074674;28;19908;-68
2022/07/05 02:01:54;;;;;;;;;;;16.50;99.90;;;;;;5074650;28;19904;-68
2022/07/05 02:04:20;;;;;;;;;;;16.60;99.90;;;;;;5074517;28;19912;-68
2022/07/05 02:06:45;;;;;;;;;;;16.70;99.90;;;;;;5074532;28;19927;-68
2022/07/05 02:09:11;;;;;;;;;;;16.70;99.90;;;;;;5074485;28;20377;-68
2022/07/05 02:11:36;;;;;;;;;;;16.70;99.90;;;;;;5074747;28;19904;-68
2022/07/05 02:14:02;;;;;;;;;;;16.70;99.90;;;;;;5074298;28;19948;-67
2022/07/05 02:16:28;;;;;;;;;;;16.80;99.90;;;;;;5074686;28;19904;-68
2022/07/05 02:18:54;;;;;;;;;;;16.70;99.90;;;;;;5074790;28;19963;-67
2022/07/05 02:21:20;;;;;;;;;;;16.60;99.90;;;;;;5074598;28;19942;-67
2022/07/05 02:23:45;;;;;;;;;;;16.60;99.90;;;;;;5074408;28;19905;-67
2022/07/05 02:26:11;;;;;;;;;;;16.50;99.90;;;;;;5074227;28;19905;-67
2022/07/05 02:28:37;;;;;;;;;;;16.50;99.90;;;;;;5074193;28;20272;-68
2022/07/05 02:31:02;;;;;;;;;;;16.40;99.90;;;;;;5074173;28;20283;-68
2022/07/05 02:33:28;;;;;;;;;;;16.40;99.90;;;;;;5034278;28;1137810;-68
2022/07/05 02:35:53;;;;;;;;;;;16.40;99.90;;;;;;5074990;28;19911;-67
2022/07/05 02:38:19;;;;;;;;;;;16.40;99.90;;;;;;5074892;28;19904;-68
2022/07/05 02:40:44;;;;;;;;;;;16.40;99.90;;;;;;5074851;28;19904;-68
2022/07/05 02:43:10;;;;;;;;;;;16.40;99.90;;;;;;5074692;28;19955;-68
2022/07/05 02:45:35;;;;;;;;;;;16.30;99.90;;;;;;5073460;28;19970;-68
2022/07/05 02:48:01;;;;;;;;;;;16.30;99.90;;;;;;5074679;28;19904;-68
2022/07/05 02:50:26;;;;;;;;;;;16.30;99.90;;;;;;5073307;28;19904;-68
2022/07/05 02:52:52;;;;;;;;;;;16.40;99.90;;;;;;5074543;28;19915;-68
2022/07/05 02:55:17;;;;;;;;;;;16.40;99.90;;;;;;5074460;28;20350;-68
2022/07/05 02:57:43;;;;;;;;;;;16.50;99.90;;;;;;5074531;28;20080;-68
2022/07/05 03:00:09;;;;;;;;;;;16.60;99.90;;;;;;5074347;28;19927;-67
2022/07/05 03:02:34;;;;;;;;;;;16.60;99.90;;;;;;5074338;28;20382;-68
2022/07/05 03:05:00;;;;;;;;;;;16.70;99.90;;;;;;5074617;28;19904;-68
2022/07/05 03:07:25;;;;;;;;;;;16.70;99.90;;;;;;5074348;28;19905;-68
2022/07/05 03:09:51;;;;;;;;;;;16.70;99.90;;;;;;5074298;28;19911;-68
2022/07/05 03:12:16;;;;;;;;;;;16.70;99.90;;;;;;5074273;28;19912;-68
2022/07/05 03:14:42;;;;;;;;;;;16.70;99.90;;;;;;5074097;28;19908;-68
2022/07/05 03:17:08;;;;;;;;;;;16.70;99.90;;;;;;5074470;28;20276;-68
2022/07/05 03:19:33;;;;;;;;;;;16.70;99.90;;;;;;5074222;28;19908;-68
2022/07/05 03:21:59;;;;;;;;;;;16.80;99.90;;;;;;5074469;28;19954;-68
2022/07/05 03:24:24;;;;;;;;;;;16.80;99.90;;;;;;5074071;28;20352;-68
2022/07/05 03:26:50;;;;;;;;;;;16.80;99.90;;;;;;5074077;28;19908;-68
2022/07/05 03:29:15;;;;;;;;;;;16.80;99.90;;;;;;5074275;28;20360;-68
2022/07/05 03:31:41;;;;;;;;;;;16.80;99.90;;;;;;5074300;28;19927;-67
2022/07/05 03:34:07;;;;;;;;;;;16.80;99.90;;;;;;5073646;28;19919;-67
2022/07/05 03:36:32;;;;;;;;;;;16.80;99.90;;;;;;5073934;28;19911;-67
2022/07/05 03:38:58;;;;;;;;;;;16.80;99.90;;;;;;5074226;28;19904;-67
2022/07/05 03:41:24;;;;;;;;;;;16.80;99.90;;;;;;5074487;28;19909;-68
2022/07/05 03:43:49;;;;;;;;;;;16.80;99.90;;;;;;5073790;28;19905;-67
2022/07/05 03:46:15;;;;;;;;;;;16.80;99.90;;;;;;5072515;28;19905;-68
2022/07/05 03:48:40;;;;;;;;;;;16.80;99.90;;;;;;5073853;28;19904;-67
2022/07/05 03:51:06;;;;;;;;;;;16.70;99.90;;;;;;5074113;28;19904;-68
2022/07/05 03:53:31;;;;;;;;;;;16.70;99.90;;;;;;5073630;28;19915;-68
2022/07/05 03:55:57;;;;;;;;;;;16.70;99.90;;;;;;5074063;28;19904;-68
2022/07/05 03:58:22;;;;;;;;;;;16.70;99.90;;;;;;5074345;28;19911;-68
2022/07/05 04:00:48;;;;;;;;;;;16.60;99.90;;;;;;5073871;28;19904;-68
2022/07/05 04:03:13;;;;;;;;;;;16.60;99.90;;;;;;5073582;28;19916;-68
2022/07/05 04:05:39;;;;;;;;;;;16.60;99.90;;;;;;5073641;28;19939;-68
2022/07/05 04:08:05;;;;;;;;;;;16.50;99.90;;;;;;5073890;28;19943;-68
2022/07/05 04:10:30;;;;;;;;;;;16.50;99.90;;;;;;5073558;28;19909;-68
2022/07/05 04:12:56;;;;;;;;;;;16.50;99.90;;;;;;5077431;28;19912;-69
2022/07/05 04:15:22;;;;;;;;;;;16.50;99.90;;;;;;5077595;28;20352;-68
2022/07/05 04:17:48;;;;;;;;;;;16.60;99.90;;;;;;5077542;28;20253;-68
2022/07/05 04:20:13;;;;;;;;;;;16.60;99.90;;;;;;5077864;28;19904;-68
2022/07/05 04:22:39;;;;;;;;;;;16.60;99.90;;;;;;5077520;28;20394;-68
2022/07/05 04:25:17;;;;;;;;;;;16.60;99.90;;;;;;5077396;28;19905;-68
2022/07/05 04:27:46;;;;;;;;;;;16.60;99.90;;;;;;5077395;28;19904;-68
2022/07/05 04:30:11;;;;;;;;;;;16.60;99.90;;;;;;5077476;28;19961;-68
2022/07/05 04:32:37;;;;;;;;;;;16.60;99.90;;;;;;5077429;28;19904;-68
2022/07/05 04:35:02;;;;;;;;;;;16.50;99.90;;;;;;5077100;28;19912;-67
2022/07/05 04:37:29;;;;;;;;;;;16.50;99.90;;;;;;5079375;28;19905;-67
2022/07/05 04:39:54;;;;;;;;;;;16.50;99.90;;;;;;5076362;28;19990;-67
2022/07/05 04:42:20;;;;;;;;;;;16.50;99.90;;;;;;5077125;28;19959;-67
2022/07/05 04:44:45;;;;;;;;;;;16.50;99.90;;;;;;5075795;28;20348;-67
2022/07/05 04:47:11;;;;;;;;;;;16.60;99.90;;;;;;5076986;28;19911;-67
2022/07/05 04:49:36;;;;;;;;;;;16.60;99.90;;;;;;5077019;28;20367;-67
2022/07/05 04:52:02;;;;;;;;;;;16.60;99.90;;;;;;5076906;28;19904;-67
2022/07/05 04:54:28;;;;;;;;;;;16.70;99.90;;;;;;5075498;28;19915;-67
2022/07/05 04:56:53;;;;;;;;;;;16.60;99.90;;;;;;5076835;28;19908;-67
2022/07/05 04:59:19;;;;;;;;;;;16.60;99.90;;;;;;5076799;28;19912;-67
2022/07/05 05:01:44;;;;;;;;;;;16.60;99.90;;;;;;5076737;28;20318;-67
2022/07/05 05:04:10;;;;;;;;;;;16.50;99.90;;;;;;5076662;28;19904;-67
2022/07/05 05:06:35;;;;;;;;;;;16.50;99.90;;;;;;5076652;28;19904;-67
2022/07/05 05:09:01;;;;;;;;;;;16.50;99.90;;;;;;5075398;28;19904;-67
2022/07/05 05:11:26;;;;;;;;;;;16.50;99.90;;;;;;5076606;28;19950;-67
2022/07/05 05:13:52;;;;;;;;;;;16.50;99.90;;;;;;5076434;28;19954;-67
2022/07/05 05:16:17;;;;;;;;;;;16.60;99.90;;;;;;5076790;28;20430;-67
2022/07/05 05:18:43;;;;;;;;;;;16.60;99.90;;;;;;5076481;28;20375;-67
2022/07/05 05:21:08;;;;;;;;;;;16.70;99.90;;;;;;5076715;28;19912;-67
2022/07/05 05:23:34;;;;;;;;;;;16.70;99.90;;;;;;5074658;28;19911;-67
2022/07/05 05:25:59;;;;;;;;;;;16.80;99.90;;;;;;5076330;28;19904;-67
2022/07/05 05:28:25;;;;;;;;;;;16.80;99.90;;;;;;5076561;28;20356;-67
2022/07/05 05:30:50;;;;;;;;;;;16.90;99.90;;;;;;5074971;28;19905;-68
2022/07/05 05:33:16;;;;;;;;;;;16.90;99.90;;;;;;5076006;28;20006;-67
2022/07/05 05:35:42;;;;;;;;;;;16.90;99.90;;;;;;5076202;28;20008;-67
2022/07/05 05:38:07;;;;;;;;;;;17.00;99.90;;;;;;5076107;28;19908;-68
2022/07/05 05:40:33;;;;;;;;;;;17.00;99.90;;;;;;5076117;28;19911;-67
2022/07/05 05:42:59;;;;;;;;;;;17.10;99.90;;;;;;5076310;28;19971;-67
2022/07/05 05:45:25;;;;;;;;;;;17.10;99.90;;;;;;5075936;28;19915;-67
2022/07/05 05:47:51;;;;;;;;;;;17.10;99.90;;;;;;5076216;28;19911;-67
2022/07/05 05:50:20;;;;;;;;;;;17.20;99.90;;;;;;5075824;28;19905;-67
2022/07/05 05:52:46;;;;;;;;;;;17.20;99.90;;;;;;5074484;28;20398;-67
2022/07/05 05:55:11;;;;;;;;;;;17.20;99.90;;;;;;5075719;28;19911;-67
2022/07/05 05:57:37;;;;;;;;;;;17.20;99.90;;;;;;5076071;28;19904;-67
2022/07/05 06:00:04;;;;;;;;;;;17.20;99.90;;;;;;5076283;28;19904;-67
2022/07/05 06:02:30;;;;;;;;;;;17.20;99.90;;;;;;5075869;28;19927;-67
2022/07/05 06:04:55;;;;;;;;;;;17.20;99.90;;;;;;5075574;28;20364;-67
2022/07/05 06:07:21;;;;;;;;;;;17.30;99.90;;;;;;5075846;28;19912;-68
2022/07/05 06:09:46;;;;;;;;;;;17.30;99.90;;;;;;5075508;28;20346;-68
2022/07/05 06:12:12;;;;;;;;;;;17.30;99.90;;;;;;5075722;28;19904;-67
2022/07/05 06:14:37;;;;;;;;;;;17.40;99.90;;;;;;5076022;28;19915;-67
2022/07/05 06:17:03;;;;;;;;;;;17.50;99.90;;;;;;5075901;28;19904;-67
2022/07/05 06:19:28;;;;;;;;;;;17.50;99.90;;;;;;5075272;28;19926;-67
2022/07/05 06:21:54;;;;;;;;;;;17.70;99.90;;;;;;5075208;28;19908;-67
2022/07/05 06:24:19;;;;;;;;;;;17.70;99.90;;;;;;5075424;28;19908;-67
2022/07/05 06:26:45;;;;;;;;;;;17.80;99.90;;;;;;5075161;28;19987;-67
2022/07/05 06:29:10;;;;;;;;;;;17.80;99.90;;;;;;5075112;28;19904;-67
2022/07/05 06:31:36;;;;;;;;;;;17.80;99.90;;;;;;5075075;28;19966;-67
2022/07/05 06:34:01;;;;;;;;;;;17.80;99.90;;;;;;5074136;28;19912;-67
2022/07/05 06:36:27;;;;;;;;;;;17.90;99.90;;;;;;5075269;28;19911;-67
2022/07/05 06:38:53;;;;;;;;;;;17.90;99.90;;;;;;5074920;28;19905;-67
2022/07/05 06:41:18;;;;;;;;;;;18.00;99.90;;;;;;5075131;28;19911;-67
2022/07/05 06:43:44;;;;;;;;;;;18.00;99.90;;;;;;5073828;28;19908;-67
2022/07/05 06:46:09;;;;;;;;;;;18.00;99.90;;;;;;5075134;28;19908;-67
2022/07/05 06:48:35;;;;;;;;;;;18.00;99.90;;;;;;5073522;28;19904;-67
2022/07/05 06:51:01;;;;;;;;;;;18.10;99.90;;;;;;5074948;28;19910;-67
2022/07/05 06:53:27;;;;;;;;;;;18.20;99.90;;;;;;5074552;28;19908;-67
2022/07/05 06:55:52;;;;;;;;;;;18.30;99.90;;;;;;5074631;28;19926;-67
2022/07/05 06:58:18;;;;;;;;;;;18.50;99.90;;;;;;5074548;28;19939;-67
2022/07/05 07:00:44;;;;;;;;;;;18.50;99.90;;;;;;5074548;28;19958;-67
2022/07/05 07:03:09;;;;;;;;;;;18.60;99.90;;;;;;5074667;28;19944;-67
2022/07/05 07:05:35;;;;;;;;;;;18.60;99.90;;;;;;5074669;28;19905;-67
2022/07/05 07:10:44;;;;;;;;;;;18.80;99.90;;;;;;5074645;28;19954;-67
2022/07/05 07:13:10;;;;;;;;;;;18.90;99.90;;;;;;5074164;28;19952;-67
2022/07/05 07:15:37;;;;;;;;;;;18.90;99.90;;;;;;5074233;28;20276;-67
2022/07/05 07:18:03;;;;;;;;;;;18.90;99.90;;;;;;5074185;28;20323;-67
2022/07/05 07:20:29;;;;;;;;;;;18.90;99.90;;;;;;5074461;28;19909;-67
2022/07/05 07:22:54;;;;;;;;;;;19.00;99.90;;;;;;5074724;28;20245;-67
2022/07/05 07:25:20;;;;;;;;;;;19.00;99.90;;;;;;5074361;28;19989;-67
2022/07/05 07:27:50;;;;;;;;;;;19.00;99.90;;;;;;5074010;28;20403;-67
2022/07/05 07:30:18;;;;;;;;;;;19.00;99.90;;;;;;5074391;28;20050;-67
2022/07/05 07:32:44;;;;;;;;;;;19.00;99.90;;;;;;5074245;28;19904;-67
2022/07/05 07:35:10;;;;;;;;;;;19.00;99.90;;;;;;5073918;28;19958;-67
2022/07/05 07:37:36;;;;;;;;;;;19.00;99.90;;;;;;5074267;28;19908;-67
2022/07/05 07:40:02;;;;;;;;;;;19.00;99.90;;;;;;5074508;28;19958;-67
2022/07/05 07:42:28;;;;;;;;;;;19.00;99.90;;;;;;5072638;28;20462;-67
2022/07/05 07:44:53;;;;;;;;;;;18.90;99.90;;;;;;5073697;28;19908;-67
2022/07/05 07:47:19;;;;;;;;;;;18.90;99.90;;;;;;5074143;28;20002;-67
2022/07/05 07:49:45;;;;;;;;;;;18.90;99.90;;;;;;5073849;28;19954;-67
2022/07/05 07:52:10;;;;;;;;;;;18.90;99.90;;;;;;5072796;28;19939;-67
2022/07/05 07:54:36;;;;;;;;;;;19.00;99.90;;;;;;5073935;28;19908;-68
2022/07/05 07:57:04;;;;;;;;;;;19.00;99.90;;;;;;5073742;28;19905;-68
2022/07/05 07:59:34;;;;;;;;;;;19.00;99.90;;;;;;5072481;28;19995;-67
2022/07/05 08:01:59;;;;;;;;;;;19.10;99.90;;;;;;5073706;28;20004;-67
2022/07/05 08:04:25;;;;;;;;;;;19.10;99.90;;;;;;5073633;28;19962;-67
2022/07/05 08:06:50;;;;;;;;;;;19.20;99.90;;;;;;5074055;28;19963;-68
2022/07/05 08:09:16;;;;;;;;;;;19.30;99.90;;;;;;5073700;28;19991;-68
2022/07/05 08:11:41;;;;;;;;;;;19.30;99.90;;;;;;5072335;28;19904;-68
2022/07/05 08:14:07;;;;;;;;;;;19.40;99.90;;;;;;5073467;28;19967;-67
2022/07/05 08:16:33;;;;;;;;;;;19.40;99.90;;;;;;5073562;28;19904;-67
2022/07/05 08:21:43;;;;;;;;;;;19.60;99.90;;;;;;5074148;28;20253;-68
2022/07/05 08:24:10;;;;;;;;;;;19.80;99.90;;;;;;5073364;28;19908;-68
2022/07/05 08:26:36;;;;;;;;;;;20.00;99.90;;;;;;5073801;28;20336;-68
2022/07/05 08:29:03;;;;;;;;;;;20.10;99.90;;;;;;5073463;28;19911;-68
2022/07/05 08:31:29;;;;;;;;;;;20.10;99.90;;;;;;5073742;28;20279;-68
2022/07/05 08:33:54;;;;;;;;;;;20.10;99.90;;;;;;5073235;28;19923;-68
2022/07/05 08:36:20;;;;;;;;;;;20.30;99.90;;;;;;5073399;28;20006;-68
2022/07/05 08:38:46;;;;;;;;;;;20.60;99.90;;;;;;5073594;28;19904;-68
2022/07/05 08:41:12;;;;;;;;;;;21.00;99.90;;;;;;5072117;28;20263;-67
2022/07/05 08:43:40;;;;;;;;;;;21.30;99.90;;;;;;5073235;28;19911;-68
2022/07/05 08:46:08;;;;;;;;;;;21.40;99.90;;;;;;5073235;28;19904;-67
2022/07/05 08:48:37;;;;;;;;;;;21.40;99.90;;;;;;5073559;28;20371;-67
2022/07/05 08:51:03;;;;;;;;;;;21.40;99.90;;;;;;5071991;28;19905;-68
2022/07/05 08:53:29;;;;;;;;;;;21.30;99.90;;;;;;5073067;28;19915;-67
2022/07/05 08:55:55;;;;;;;;;;;21.40;99.90;;;;;;5072845;28;19995;-67
2022/07/05 08:58:21;;;;;;;;;;;21.40;99.90;;;;;;5075871;28;19997;-68
2022/07/05 09:00:46;;;;;;;;;;;21.30;99.90;;;;;;5077085;28;19912;-68
2022/07/05 09:03:13;;;;;;;;;;;21.20;99.90;;;;;;5076701;28;19911;-68
2022/07/05 09:05:44;;;;;;;;;;;21.20;99.90;;;;;;5077312;28;19904;-68
2022/07/05 09:08:16;;;;;;;;;;;21.10;99.90;;;;;;5076984;28;19992;-68
2022/07/05 09:10:43;;;;;;;;;;;21.10;99.90;;;;;;5074242;28;20323;-68
2022/07/05 09:13:09;;;;;;;;;;;21.10;99.90;;;;;;5076455;28;19943;-68
2022/07/05 09:15:37;;;;;;;;;;;21.10;99.90;;;;;;5075276;28;19908;-68
2022/07/05 09:18:03;;;;;;;;;;;21.10;99.90;;;;;;5076516;28;20046;-68
2022/07/05 09:20:29;;;;;;;;;;;21.10;99.90;;;;;;5076791;28;20372;-68
2022/07/05 09:22:55;;;;;;;;;;;21.00;99.90;;;;;;5076421;28;19908;-68
2022/07/05 09:25:20;;;;;;;;;;;21.10;99.90;;;;;;5075097;28;19999;-68
2022/07/05 09:27:50;;;;;;;;;;;21.10;99.90;;;;;;5075099;28;19947;-68
2022/07/05 09:30:28;;;;;;;;;;;21.10;99.90;;;;;;5076862;28;19963;-68
2022/07/05 09:33:03;;;;;;;;;;;21.10;99.90;;;;;;5076164;28;20315;-68
2022/07/05 09:35:32;;;;;;;;;;;21.00;99.90;;;;;;5076024;28;19935;-68
2022/07/05 09:37:57;;;;;;;;;;;20.90;99.90;;;;;;5076459;28;19911;-69
2022/07/05 09:40:23;;;;;;;;;;;20.90;99.90;;;;;;5076682;28;19984;-68
2022/07/05 09:42:49;;;;;;;;;;;20.90;99.90;;;;;;5076056;28;19908;-68
2022/07/05 09:45:21;;;;;;;;;;;20.90;99.90;;;;;;5074680;28;19927;-68
2022/07/05 09:47:47;;;;;;;;;;;20.80;99.90;;;;;;5076299;28;19904;-69
2022/07/05 09:50:13;;;;;;;;;;;20.80;99.90;;;;;;5075920;28;20287;-69
2022/07/05 09:52:39;;;;;;;;;;;20.80;99.90;;;;;;5076174;28;19905;-69
2022/07/05 09:55:05;;;;;;;;;;;20.80;99.90;;;;;;5075709;28;19919;-68
2022/07/05 09:57:31;;;;;;;;;;;20.70;99.90;;;;;;5075821;28;19904;-69
2022/07/05 10:00:05;;;;;;;;;;;20.70;99.90;;;;;;5074477;28;19956;-68
2022/07/05 10:02:38;;;;;;;;;;;20.70;99.90;;;;;;5075972;28;19950;-69
2022/07/05 10:05:16;;;;;;;;;;;20.70;99.90;;;;;;5075604;28;19904;-68
2022/07/05 10:07:46;;;;;;;;;;;20.70;99.90;;;;;;5074278;28;19904;-68
2022/07/05 10:10:12;;;;;;;;;;;20.60;99.90;;;;;;5074544;28;20058;-69
2022/07/05 10:12:39;;;;;;;;;;;20.50;99.90;;;;;;5075776;28;19904;-69
2022/07/05 10:15:05;;;;;;;;;;;20.50;99.90;;;;;;5075272;28;20283;-68
2022/07/05 10:17:34;;;;;;;;;;;20.40;99.90;;;;;;5075318;28;19940;-69
2022/07/05 10:20:00;;;;;;;;;;;20.30;99.90;;;;;;5075343;28;19905;-69
2022/07/05 10:22:26;;;;;;;;;;;20.30;99.90;;;;;;5075282;28;19913;-69
2022/07/05 10:24:53;;;;;;;;;;;20.30;99.90;;;;;;5075485;28;20309;-69
2022/07/05 10:27:19;;;;;;;;;;;20.30;99.90;;;;;;5074259;28;20331;-69
2022/07/05 10:29:44;;;;;;;;;;;20.30;99.90;;;;;;5075190;28;19954;-68
2022/07/05 10:32:11;;;;;;;;;;;20.40;99.90;;;;;;5075656;28;19904;-68
2022/07/05 10:34:37;;;;;;;;;;;20.40;99.90;;;;;;5074743;28;19913;-68
2022/07/05 10:37:03;;;;;;;;;;;20.50;99.90;;;;;;5075287;28;20007;-68
2022/07/05 10:39:29;;;;;;;;;;;20.50;99.90;;;;;;5075703;28;20356;-68
2022/07/05 10:41:55;;;;;;;;;;;20.60;99.90;;;;;;5074902;28;19908;-68
2022/07/05 10:44:31;;;;;;;;;;;20.70;99.90;;;;;;5074795;28;19904;-68
2022/07/05 10:47:10;;;;;;;;;;;20.80;99.90;;;;;;5074958;28;19958;-68
2022/07/05 10:49:36;;;;;;;;;;;20.80;99.90;;;;;;5075037;28;19993;-68
2022/07/05 10:52:02;;;;;;;;;;;20.90;99.90;;;;;;5074985;28;19904;-68
2022/07/05 10:54:28;;;;;;;;;;;20.90;99.90;;;;;;5074850;28;19915;-68
2022/07/05 10:57:16;;;;;;;;;;;20.90;99.90;;;;;;5073330;28;20364;-68
2022/07/05 11:00:00;;;;;;;;;;;20.90;99.90;;;;;;5073072;28;19905;-68
2022/07/05 11:02:26;;;;;;;;;;;20.90;99.90;;;;;;5074521;28;19910;-68
2022/07/05 11:04:55;;;;;;;;;;;20.90;99.90;;;;;;5074366;28;20468;-67
2022/07/05 11:07:39;;;;;;;;;;;20.90;99.90;;;;;;5074480;28;19904;-68
2022/07/05 11:10:06;;;;;;;;;;;21.00;99.90;;;;;;5073420;28;19912;-68
2022/07/05 11:12:36;;;;;;;;;;;21.10;99.90;;;;;;5074322;28;19904;-68
2022/07/05 11:15:07;;;;;;;;;;;21.20;99.90;;;;;;5074132;28;20384;-68
2022/07/05 11:17:35;;;;;;;;;;;21.50;99.90;;;;;;5074557;28;19911;-68
2022/07/05 11:20:02;;;;;;;;;;;21.70;99.90;;;;;;5074144;28;19905;-68
2022/07/05 11:22:28;;;;;;;;;;;22.00;99.90;;;;;;5074487;28;19935;-68
2022/07/05 11:24:55;;;;;;;;;;;22.20;99.90;;;;;;5074137;28;20261;-68
2022/07/05 11:27:21;;;;;;;;;;;22.40;99.90;;;;;;5072882;28;19910;-68
2022/07/05 11:29:48;;;;;;;;;;;22.60;99.90;;;;;;5074107;28;19994;-68
2022/07/05 11:32:16;;;;;;;;;;;22.80;99.90;;;;;;5074324;28;19908;-68
2022/07/05 11:34:42;;;;;;;;;;;22.80;99.90;;;;;;5073881;28;20330;-67
2022/07/05 11:37:24;;;;;;;;;;;22.70;99.90;;;;;;5073979;28;19908;-68
2022/07/05 11:40:05;;;;;;;;;;;22.60;99.90;;;;;;5072739;28;19940;-68
2022/07/05 11:42:30;;;;;;;;;;;22.50;99.90;;;;;;5074500;28;19990;-68
2022/07/05 11:44:56;;;;;;;;;;;22.40;99.90;;;;;;5073851;28;19951;-68
2022/07/05 11:47:22;;;;;;;;;;;22.20;99.90;;;;;;5074154;28;19991;-68
2022/07/05 11:49:54;;;;;;;;;;;22.20;99.90;;;;;;5073849;28;20329;-68
2022/07/05 11:52:30;;;;;;;;;;;22.00;99.90;;;;;;5074105;28;20311;-68
2022/07/05 11:54:56;;;;;;;;;;;21.90;99.90;;;;;;5073637;28;19909;-68
2022/07/05 11:57:23;;;;;;;;;;;21.70;99.90;;;;;;5073162;28;19961;-68
2022/07/05 11:59:48;;;;;;;;;;;21.60;99.90;;;;;;5074047;28;19904;-68
2022/07/05 12:02:14;;;;;;;;;;;21.50;99.90;;;;;;5073324;28;19942;-68
2022/07/05 12:04:39;;;;;;;;;;;21.50;99.90;;;;;;5073426;28;19912;-68
2022/07/05 12:07:05;;;;;;;;;;;21.50;99.90;;;;;;5094079;28;19999;-67
2022/07/05 12:15:04;;;;;;;;;;;21.50;99.90;;;;;;5090289;28;19919;-67
2022/07/05 12:17:33;;;;;;;;;;;21.50;99.90;;;;;;5072514;28;19908;-68
2022/07/05 12:19:58;;;;;;;;;;;21.50;99.90;;;;;;5072692;28;20331;-68
2022/07/05 12:22:27;;;;;;;;;;;21.50;99.90;;;;;;5073435;28;19914;-67
2022/07/05 12:24:53;;;;;;;;;;;21.40;99.90;;;;;;5074028;28;19979;-66
2022/07/05 12:27:18;;;;;;;;;;;21.30;99.90;;;;;;5073814;28;20390;-67
2022/07/05 12:29:44;;;;;;;;;;;21.30;99.90;;;;;;5074043;28;20311;-67
2022/07/05 12:32:10;;;;;;;;;;;21.20;99.90;;;;;;5074496;28;20060;-67
2022/07/05 12:34:36;;;;;;;;;;;21.10;99.90;;;;;;5077246;28;19962;-68
2022/07/05 12:37:02;;;;;;;;;;;21.10;99.90;;;;;;5077320;28;19904;-66
2022/07/05 12:39:28;;;;;;;;;;;21.00;99.90;;;;;;5077165;28;19904;-67
2022/07/05 12:41:55;;;;;;;;;;;21.10;99.90;;;;;;5077238;28;19905;-67
2022/07/05 12:44:21;;;;;;;;;;;21.10;99.90;;;;;;5077081;28;19957;-66
2022/07/05 12:46:49;;;;;;;;;;;21.20;99.90;;;;;;5077370;28;19908;-68
2022/07/05 12:49:14;;;;;;;;;;;21.30;99.90;;;;;;5077093;28;20333;-67
2022/07/05 12:51:42;;;;;;;;;;;21.40;99.90;;;;;;5076983;28;19952;-67
2022/07/05 12:59:38;;;;;;;;;;;21.50;99.90;;;;;;5076643;28;19915;-67
2022/07/05 13:02:04;;;;;;;;;;;21.50;99.90;;;;;;5075048;28;19908;-67
2022/07/05 13:04:30;;;;;;;;;;;21.60;99.90;;;;;;5076017;28;19987;-67
2022/07/05 13:07:00;;;;;;;;;;;21.60;99.90;;;;;;5074925;28;19915;-68
2022/07/05 13:09:28;;;;;;;;;;;21.70;99.90;;;;;;5074936;28;19908;-67
2022/07/05 13:12:06;;;;;;;;;;;21.80;99.90;;;;;;5074595;28;19955;-66
2022/07/05 13:14:32;;;;;;;;;;;21.90;99.90;;;;;;5074372;28;20272;-67
2022/07/05 13:16:58;;;;;;;;;;;22.10;99.90;;;;;;5072876;28;19931;-68
2022/07/05 13:19:23;;;;;;;;;;;22.30;99.90;;;;;;5074361;28;19905;-67
2022/07/05 13:21:49;;;;;;;;;;;22.40;99.90;;;;;;5074349;28;19911;-66
2022/07/05 13:24:14;;;;;;;;;;;22.40;99.90;;;;;;5074630;28;19962;-66
2022/07/05 13:26:40;;;;;;;;;;;22.40;98.60;;;;;;5075393;28;20319;-67
2022/07/05 13:29:05;;;;;;;;;;;22.30;99.20;;;;;;5076570;28;19905;-67
2022/07/05 13:31:31;;;;;;;;;;;22.30;99.90;;;;;;5076142;28;19904;-67
2022/07/05 13:33:57;;;;;;;;;;;22.30;99.90;;;;;;5075729;28;20061;-67
2022/07/05 13:36:23;;;;;;;;;;;22.30;99.80;;;;;;5076110;28;19914;-67
2022/07/05 13:38:48;;;;;;;;;;;22.50;99.60;;;;;;5076126;28;19983;-67
2022/07/05 13:41:14;;;;;;;;;;;22.80;99.90;;;;;;5076296;28;19909;-68
2022/07/05 13:43:39;;;;;;;;;;;23.00;99.90;;;;;;5075934;28;19990;-68
2022/07/05 13:46:05;;;;;;;;;;;23.20;99.20;;;;;;5055996;28;19905;-68
2022/07/05 13:48:31;;;;;;;;;;;23.30;98.70;;;;;;5055864;28;19904;-67
2022/07/05 13:50:57;;;;;;;;;;;23.40;98.50;;;;;;5061543;28;19982;-68
2022/07/05 13:53:22;;;;;;;;;;;23.40;98.10;;;;;;5075210;28;19970;-68
2022/07/05 13:55:48;;;;;;;;;;;23.40;98.20;;;;;;5075577;28;20008;-68
2022/07/05 13:58:13;;;;;;;;;;;23.40;96.40;;;;;;5076065;28;19904;-68
2022/07/05 14:00:39;;;;;;;;;;;23.30;97.10;;;;;;5076325;28;19904;-67
2022/07/05 14:03:04;;;;;;;;;;;23.20;95.80;;;;;;5075709;28;19908;-68
2022/07/05 14:05:30;;;;;;;;;;;23.10;95.90;;;;;;5075312;28;19931;-67
2022/07/05 14:07:55;;;;;;;;;;;23.00;96.40;;;;;;5075608;28;20279;-68
2022/07/05 14:10:21;;;;;;;;;;;23.00;97.00;;;;;;5075539;28;19904;-67
2022/07/05 14:12:46;;;;;;;;;;;23.00;96.70;;;;;;5074232;28;19911;-68
2022/07/05 14:15:12;;;;;;;;;;;23.00;96.70;;;;;;5075517;28;19912;-68
2022/07/05 14:17:37;;;;;;;;;;;23.00;96.80;;;;;;5075665;28;19904;-67
2022/07/05 14:20:04;;;;;;;;;;;23.10;96.70;;;;;;5075361;28;19905;-68
2022/07/05 14:22:30;;;;;;;;;;;23.10;96.40;;;;;;5075862;28;20339;-68
2022/07/05 14:24:55;;;;;;;;;;;23.10;96.60;;;;;;5075192;28;19904;-68
2022/07/05 14:27:21;;;;;;;;;;;23.10;97.30;;;;;;5075479;28;19990;-68
2022/07/05 14:29:46;;;;;;;;;;;23.10;96.70;;;;;;5075125;28;19995;-68
2022/07/05 14:32:12;;;;;;;;;;;23.10;96.70;;;;;;5073791;28;19971;-68